Springfield-Branson National Airport Airport (SGF)

 

Airport Diagram
Current Weather/Forecast (MVFR Conditions)
METAR KSGF 280139Z 36014KT 10SM -RA SCT012 BKN017 OVC040 13/12 A2991 RMK AO2 PK WND 01032/0103 P0001 T01280117
TAF KSGF 272320Z 2800/2824 36018G30KT 6SM -SHRA OVC009 FM280300 01018G30KT 6SM -SHRA BR OVC015 FM280400 01015G26KT 6SM BR OVC024 FM280700 36008KT P6SM BKN060

All Charts
General
Chart Name Download
AIRPORT DIAGRAM
TAKEOFF MINIMUMS
ALTERNATE MINIMUMS
HOT SPOT

Approaches
Chart Name Download
ILS OR LOC RWY 02
ILS OR LOC RWY 14
RNAV (GPS) RWY 02
RNAV (GPS) RWY 14
RNAV (GPS) RWY 20
RNAV (GPS) RWY 32
VOR/DME OR TACAN RWY 02
VOR OR TACAN RWY 20
HI-TACAN RWY 20


Inbound Traffic (Arrivals)

No inbound traffic.


Outbound Traffic (Departures)

No outbound traffic.